createdAt,value
2019-03-26T00:01:48.326Z,19.23
2019-03-26T00:04:19.531Z,18.87
2019-03-26T00:06:50.568Z,18.62
2019-03-26T00:09:22.663Z,15.60
2019-03-26T00:11:56.401Z,15.88
2019-03-26T00:14:27.466Z,11.95
2019-03-26T00:16:58.468Z,11.20
2019-03-26T00:19:29.577Z,11.20
2019-03-26T00:22:00.710Z,15.78
2019-03-26T00:24:31.823Z,14.45
2019-03-26T00:27:04.089Z,17.35
2019-03-26T00:29:35.272Z,14.30
2019-03-26T00:32:06.355Z,13.70
2019-03-26T00:34:37.516Z,17.07
2019-03-26T00:37:08.682Z,21.30
2019-03-26T00:39:39.833Z,14.50
2019-03-26T00:42:10.817Z,13.00
2019-03-26T00:44:41.895Z,14.33
2019-03-26T00:47:14.526Z,15.32
2019-03-26T00:49:45.604Z,16.15
2019-03-26T00:52:16.650Z,14.53
2019-03-26T00:54:47.749Z,15.08
2019-03-26T00:57:20.609Z,17.45
2019-03-26T00:59:51.804Z,17.65
2019-03-26T01:02:22.848Z,17.50
2019-03-26T01:04:53.933Z,13.30
2019-03-26T01:07:24.982Z,14.68
2019-03-26T01:09:56.153Z,13.98
2019-03-26T01:12:27.181Z,16.32
2019-03-26T01:14:58.312Z,13.68
2019-03-26T01:17:29.337Z,16.15
2019-03-26T01:20:02.664Z,14.15
2019-03-26T01:22:35.257Z,13.55
2019-03-26T01:25:07.195Z,15.23
2019-03-26T01:27:38.256Z,15.93
2019-03-26T01:30:09.438Z,12.88
2019-03-26T01:32:40.507Z,18.20
2019-03-26T01:35:11.507Z,15.80
2019-03-26T01:37:43.361Z,14.15
2019-03-26T01:40:14.403Z,14.18
2019-03-26T01:42:45.612Z,13.60
2019-03-26T01:45:16.654Z,14.15
2019-03-26T01:47:47.662Z,15.63
2019-03-26T01:50:18.705Z,15.50
2019-03-26T01:52:49.787Z,14.43
2019-03-26T01:55:20.828Z,16.12
2019-03-26T01:57:51.864Z,15.93
2019-03-26T02:00:23.032Z,15.00
2019-03-26T02:02:58.342Z,18.35
2019-03-26T02:05:29.644Z,21.12
2019-03-26T02:08:00.669Z,17.77
2019-03-26T02:10:31.793Z,16.23
2019-03-26T02:13:03.288Z,19.42
2019-03-26T02:15:37.368Z,19.60
2019-03-26T02:18:11.010Z,17.77
2019-03-26T02:20:44.747Z,15.58
2019-03-26T02:23:16.118Z,15.40
2019-03-26T02:25:47.474Z,16.87
2019-03-26T02:28:18.608Z,18.42
2019-03-26T02:30:51.817Z,18.50
2019-03-26T02:33:23.198Z,17.62
2019-03-26T02:35:57.489Z,17.02
2019-03-26T02:38:30.301Z,15.98
2019-03-26T02:41:01.812Z,17.87
2019-03-26T02:43:33.933Z,21.82
2019-03-26T02:46:07.935Z,16.60
2019-03-26T02:48:41.629Z,13.10
2019-03-26T02:51:12.652Z,18.67
2019-03-26T02:53:45.499Z,20.48
2019-03-26T02:56:22.258Z,22.62
2019-03-26T02:58:56.544Z,19.15
2019-03-26T03:01:28.113Z,20.77
2019-03-26T03:04:01.625Z,17.05
2019-03-26T03:06:32.736Z,15.18
2019-03-26T03:09:05.436Z,17.50
2019-03-26T03:11:36.497Z,19.23
2019-03-26T03:14:09.549Z,17.12
2019-03-26T03:16:41.183Z,20.00
2019-03-26T03:19:15.589Z,16.77
2019-03-26T03:21:45.173Z,15.38
2019-03-26T03:24:16.141Z,18.67
2019-03-26T03:26:47.277Z,13.98
2019-03-26T03:29:18.611Z,17.25
2019-03-26T03:31:49.799Z,17.02
2019-03-26T03:34:20.834Z,18.32
2019-03-26T03:40:02.082Z,14.80
2019-03-26T03:42:37.378Z,21.95
2019-03-26T03:45:09.297Z,17.15
2019-03-26T03:47:40.340Z,13.53
2019-03-26T03:50:11.309Z,14.07
2019-03-26T03:52:42.448Z,16.30
2019-03-26T03:55:13.430Z,13.95
2019-03-26T03:57:45.325Z,15.20
2019-03-26T04:00:32.139Z,14.25
2019-03-26T04:03:04.390Z,19.15
2019-03-26T04:05:35.577Z,21.52
2019-03-26T04:08:06.999Z,22.00
2019-03-26T04:10:39.043Z,24.47
2019-03-26T04:13:10.204Z,21.35
2019-03-26T04:15:41.188Z,16.50
2019-03-26T04:18:14.400Z,12.55
2019-03-26T04:20:48.041Z,20.23
2019-03-26T04:23:19.042Z,15.60
2019-03-26T04:25:50.022Z,18.67
2019-03-26T04:28:21.069Z,20.50
2019-03-26T04:30:52.519Z,18.75
2019-03-26T04:33:23.549Z,26.15
2019-03-26T04:35:55.635Z,19.30
2019-03-26T04:38:28.305Z,22.32
2019-03-26T04:40:59.395Z,16.87
2019-03-26T04:43:32.436Z,26.10
2019-03-26T04:46:05.606Z,19.12
2019-03-26T04:48:36.636Z,19.57
2019-03-26T04:51:08.604Z,22.82
2019-03-26T04:53:46.568Z,14.25
2019-03-26T04:56:17.598Z,19.05
2019-03-26T04:58:52.964Z,22.82
2019-03-26T05:01:24.310Z,19.02
2019-03-26T05:03:56.240Z,19.90
2019-03-26T05:06:37.901Z,27.15
2019-03-26T05:09:05.856Z,17.30
2019-03-26T05:11:37.036Z,18.90
2019-03-26T05:14:12.089Z,17.65
2019-03-26T05:16:48.249Z,20.80
2019-03-26T05:19:20.128Z,19.20
2019-03-26T05:21:51.251Z,20.95
2019-03-26T05:24:22.384Z,23.55
2019-03-26T05:26:53.436Z,26.35
2019-03-26T05:29:24.558Z,24.47
2019-03-26T05:31:56.002Z,25.40
2019-03-26T05:34:27.109Z,23.92
2019-03-26T05:37:04.022Z,25.72
2019-03-26T05:39:35.049Z,27.58
2019-03-26T05:42:07.072Z,22.35
2019-03-26T05:44:40.147Z,26.87
2019-03-26T05:47:11.245Z,33.02
2019-03-26T05:49:42.443Z,47.25
2019-03-26T05:52:13.587Z,48.55
2019-03-26T05:54:46.024Z,42.78
2019-03-26T05:57:17.059Z,44.33
2019-03-26T05:59:48.235Z,44.75
2019-03-26T06:02:19.219Z,48.23
2019-03-26T06:04:50.532Z,49.58
2019-03-26T06:07:37.769Z,58.02
2019-03-26T06:10:11.334Z,71.28
2019-03-26T06:12:43.333Z,68.55
2019-03-26T06:15:14.770Z,71.70
2019-03-26T06:17:46.951Z,81.37
2019-03-26T06:20:19.950Z,101.20
2019-03-26T06:22:51.026Z,90.40
2019-03-26T06:25:22.141Z,97.67
2019-03-26T06:27:54.095Z,67.82
2019-03-26T06:30:27.820Z,75.37
2019-03-26T06:32:58.905Z,75.45
2019-03-26T06:35:30.040Z,77.95
2019-03-26T06:38:01.109Z,71.42
2019-03-26T06:40:32.124Z,59.60
2019-03-26T06:43:03.217Z,64.65
2019-03-26T06:45:35.297Z,67.27
2019-03-26T06:48:08.432Z,86.80
2019-03-26T06:50:40.865Z,91.17
2019-03-26T06:53:12.916Z,92.10
2019-03-26T06:55:57.207Z,84.35
2019-03-26T06:58:29.251Z,69.77
2019-03-26T07:01:01.823Z,68.05
2019-03-26T07:03:35.467Z,55.40
2019-03-26T07:06:08.583Z,58.73
2019-03-26T07:08:41.095Z,62.17
2019-03-26T07:11:16.128Z,61.28
2019-03-26T07:13:47.140Z,56.23
2019-03-26T07:16:18.434Z,54.18
2019-03-26T07:18:50.584Z,54.03
2019-03-26T07:21:23.672Z,57.70
2019-03-26T07:23:54.818Z,55.33
2019-03-26T07:26:25.799Z,63.78
2019-03-26T07:28:58.438Z,60.00
2019-03-26T07:31:40.092Z,59.15
2019-03-26T07:34:18.967Z,64.67
2019-03-26T07:36:54.056Z,63.28
2019-03-26T07:39:27.225Z,69.87
2019-03-26T07:41:59.245Z,67.60
2019-03-26T07:44:34.840Z,66.25
2019-03-26T07:47:06.020Z,69.07
2019-03-26T07:49:37.765Z,70.10
2019-03-26T07:52:11.881Z,70.87
2019-03-26T07:54:46.483Z,68.95
2019-03-26T07:57:20.644Z,65.65
2019-03-26T07:59:53.752Z,68.30
2019-03-26T08:02:29.360Z,70.08
2019-03-26T08:05:01.304Z,73.17
2019-03-26T08:07:35.793Z,66.90
2019-03-26T08:10:08.466Z,76.25
2019-03-26T08:12:41.498Z,70.60
2019-03-26T08:15:12.795Z,74.82
2019-03-26T08:17:45.459Z,72.87
2019-03-26T08:20:16.806Z,71.77
2019-03-26T08:22:50.223Z,72.92
2019-03-26T08:25:29.393Z,68.12
2019-03-26T08:28:00.518Z,70.67
2019-03-26T08:30:31.662Z,73.85
2019-03-26T08:33:03.973Z,66.28
2019-03-26T08:35:38.238Z,67.70
2019-03-26T08:38:13.538Z,60.73
2019-03-26T08:40:45.215Z,55.92
2019-03-26T08:43:17.180Z,67.45
2019-03-26T08:45:48.544Z,64.35
2019-03-26T08:48:19.913Z,60.28
2019-03-26T08:50:50.935Z,60.60
2019-03-26T08:53:23.989Z,62.83
2019-03-26T08:55:58.635Z,62.55
2019-03-26T08:58:29.715Z,64.17
2019-03-26T09:01:00.902Z,63.68
2019-03-26T09:03:32.047Z,62.27
2019-03-26T09:06:04.974Z,62.08
2019-03-26T09:08:35.992Z,64.58
2019-03-26T09:11:06.992Z,62.55
2019-03-26T09:13:37.993Z,71.67
2019-03-26T09:16:09.152Z,63.78
2019-03-26T09:18:41.235Z,51.42
2019-03-26T09:21:13.606Z,47.93
2019-03-26T09:23:46.005Z,64.82
2019-03-26T09:26:17.098Z,50.23
2019-03-26T09:28:48.369Z,51.25
2019-03-26T09:31:19.731Z,48.95
2019-03-26T09:33:53.091Z,49.53
2019-03-26T09:36:24.184Z,51.77
2019-03-26T09:38:55.464Z,50.25
2019-03-26T09:41:26.645Z,56.73
2019-03-26T09:43:57.872Z,50.75
2019-03-26T09:46:29.037Z,48.63
2019-03-26T09:49:00.326Z,51.10
2019-03-26T09:51:32.018Z,49.15
2019-03-26T09:54:18.625Z,49.50
2019-03-26T09:56:49.760Z,50.95
2019-03-26T09:59:20.763Z,47.33
2019-03-26T10:01:51.912Z,47.40
2019-03-26T10:04:22.989Z,56.65
2019-03-26T10:06:54.145Z,61.35
2019-03-26T10:09:26.444Z,68.40
2019-03-26T10:11:57.587Z,75.37
2019-03-26T10:14:32.105Z,75.22
2019-03-26T10:17:03.507Z,79.15
2019-03-26T10:19:34.659Z,69.87
2019-03-26T10:22:05.749Z,68.47
2019-03-26T10:24:37.973Z,71.35
2019-03-26T10:27:09.184Z,71.90
2019-03-26T10:29:40.330Z,83.40
2019-03-26T10:32:15.367Z,89.67
2019-03-26T10:34:47.262Z,89.10
2019-03-26T10:37:18.568Z,90.10
2019-03-26T10:39:49.760Z,82.20
2019-03-26T10:42:20.828Z,86.15
2019-03-26T10:44:51.861Z,86.20
2019-03-26T10:47:23.052Z,95.28
2019-03-26T10:49:54.257Z,97.40
2019-03-26T10:52:25.404Z,96.32
2019-03-26T10:54:56.443Z,104.78
2019-03-26T10:57:29.254Z,104.47
2019-03-26T11:00:00.490Z,92.78
2019-03-26T11:02:32.403Z,90.05
2019-03-26T11:05:04.895Z,84.25
2019-03-26T11:07:36.088Z,78.47
2019-03-26T11:10:09.083Z,80.92
2019-03-26T11:12:40.284Z,78.10
2019-03-26T11:15:11.863Z,70.17
2019-03-26T11:17:43.873Z,66.45
2019-03-26T11:20:15.048Z,66.30
2019-03-26T11:22:46.206Z,57.75
2019-03-26T11:25:17.378Z,70.40
2019-03-26T11:27:49.039Z,61.40
2019-03-26T11:30:20.574Z,59.40
2019-03-26T11:32:51.687Z,65.95
2019-03-26T11:35:27.044Z,66.10
2019-03-26T11:37:58.538Z,55.58
2019-03-26T11:40:29.837Z,55.83
2019-03-26T11:43:03.643Z,66.85
2019-03-26T11:45:34.724Z,60.88
2019-03-26T11:48:05.901Z,56.00
2019-03-26T11:50:38.474Z,62.67
2019-03-26T11:53:09.485Z,63.05
2019-03-26T11:55:43.408Z,57.95
2019-03-26T11:58:14.619Z,64.92
2019-03-26T12:00:45.978Z,61.25
2019-03-26T12:03:17.378Z,63.70
2019-03-26T12:05:48.476Z,70.78
2019-03-26T12:08:19.794Z,63.50
2019-03-26T12:10:50.774Z,63.80
2019-03-26T12:13:21.867Z,54.15
2019-03-26T12:15:52.857Z,54.73
2019-03-26T12:18:23.877Z,62.80
2019-03-26T12:20:54.957Z,126.55
2019-03-26T12:23:26.166Z,62.00
2019-03-26T12:25:57.295Z,56.77
2019-03-26T12:28:28.445Z,59.80
2019-03-26T12:30:59.446Z,54.75
2019-03-26T12:33:30.668Z,62.25
2019-03-26T12:36:02.706Z,52.13
2019-03-26T12:38:33.864Z,49.08
2019-03-26T12:41:05.008Z,45.78
2019-03-26T12:43:38.005Z,46.02
2019-03-26T12:46:09.045Z,37.60
2019-03-26T12:48:40.106Z,35.38
2019-03-26T12:51:11.112Z,32.90
2019-03-26T12:53:42.283Z,28.90
2019-03-26T12:56:24.009Z,31.00
2019-03-26T12:58:55.113Z,84.70
2019-03-26T13:01:26.127Z,29.75
2019-03-26T13:03:57.495Z,34.85
2019-03-26T13:06:28.736Z,25.57
2019-03-26T13:08:59.875Z,26.35
2019-03-26T13:11:31.018Z,28.90
2019-03-26T13:14:02.090Z,36.40
2019-03-26T13:16:33.212Z,34.10
2019-03-26T13:19:04.588Z,27.98
2019-03-26T13:21:37.519Z,28.23
2019-03-26T13:24:11.278Z,27.32
2019-03-26T13:26:41.306Z,29.30
2019-03-26T13:29:12.443Z,33.98
2019-03-26T13:31:43.576Z,32.73
2019-03-26T13:34:16.235Z,36.10
2019-03-26T13:36:57.198Z,32.70
2019-03-26T13:39:30.266Z,38.02
2019-03-26T13:42:02.398Z,31.15
2019-03-26T13:44:33.525Z,50.15
2019-03-26T13:47:04.655Z,45.83
2019-03-26T13:49:40.112Z,38.48
2019-03-26T13:52:11.192Z,34.50
2019-03-26T13:54:42.250Z,34.95
2019-03-26T13:57:13.379Z,28.30
2019-03-26T13:59:44.560Z,27.48
2019-03-26T14:02:15.724Z,30.95
2019-03-26T14:04:46.898Z,26.50
2019-03-26T14:07:18.013Z,31.10
2019-03-26T14:09:49.023Z,26.50
2019-03-26T14:12:20.108Z,25.82
2019-03-26T14:14:51.296Z,26.70
2019-03-26T14:17:23.323Z,26.57
2019-03-26T14:19:54.342Z,23.60
2019-03-26T14:22:25.476Z,26.23
2019-03-26T14:24:57.690Z,24.02
2019-03-26T14:27:29.775Z,28.35
2019-03-26T14:30:00.825Z,30.10
2019-03-26T14:32:31.979Z,29.60
2019-03-26T14:35:04.690Z,36.88
2019-03-26T14:37:35.981Z,36.40
2019-03-26T14:40:07.671Z,43.85
2019-03-26T14:42:39.050Z,30.12
2019-03-26T14:45:10.119Z,39.85
2019-03-26T14:47:44.443Z,33.13
2019-03-26T14:50:15.994Z,71.35
2019-03-26T14:52:47.244Z,32.13
2019-03-26T14:55:18.423Z,34.85
2019-03-26T14:57:50.526Z,39.00
2019-03-26T15:00:21.706Z,42.17
2019-03-26T15:02:53.045Z,38.85
2019-03-26T15:05:24.044Z,39.63
2019-03-26T15:07:55.265Z,38.92
2019-03-26T15:10:26.268Z,37.48
2019-03-26T15:12:57.576Z,39.00
2019-03-26T15:15:28.864Z,39.00
2019-03-26T15:18:01.504Z,36.17
2019-03-26T15:20:32.656Z,37.42
2019-03-26T15:23:04.130Z,40.78
2019-03-26T15:25:35.315Z,35.20
2019-03-26T15:28:06.459Z,32.30
2019-03-26T15:30:38.900Z,30.55
2019-03-26T15:33:10.197Z,34.03
2019-03-26T15:35:41.239Z,31.52
2019-03-26T15:38:12.251Z,31.48
2019-03-26T15:40:43.280Z,31.02
2019-03-26T15:43:14.471Z,27.27
2019-03-26T15:45:45.537Z,28.65
2019-03-26T15:48:16.688Z,35.85
2019-03-26T15:50:47.721Z,29.10
2019-03-26T15:53:19.141Z,27.98
2019-03-26T15:55:50.211Z,37.10
2019-03-26T15:58:22.691Z,51.65
2019-03-26T16:00:53.698Z,44.53
2019-03-26T16:03:24.714Z,49.40
2019-03-26T16:05:56.574Z,41.28
2019-03-26T16:08:32.239Z,44.88
2019-03-26T16:11:03.260Z,45.48
2019-03-26T16:13:35.862Z,44.00
2019-03-26T16:16:07.279Z,43.63
2019-03-26T16:18:39.709Z,87.42
2019-03-26T16:21:10.705Z,41.42
2019-03-26T16:23:41.763Z,47.48
2019-03-26T16:26:12.798Z,45.50
2019-03-26T16:28:48.044Z,48.15
2019-03-26T16:31:19.286Z,36.10
2019-03-26T16:33:50.572Z,52.40
2019-03-26T16:36:21.932Z,40.00
2019-03-26T16:38:53.228Z,43.40
2019-03-26T16:41:24.438Z,39.95
2019-03-26T16:43:55.521Z,38.78
2019-03-26T16:46:26.704Z,46.05
2019-03-26T16:48:58.832Z,42.05
2019-03-26T16:51:30.091Z,44.70
2019-03-26T16:54:01.408Z,46.37
2019-03-26T16:56:33.689Z,50.85
2019-03-26T16:59:05.948Z,87.57
2019-03-26T17:01:37.881Z,47.78
2019-03-26T17:04:08.899Z,43.90
2019-03-26T17:06:40.097Z,43.23
2019-03-26T17:09:11.355Z,40.67
2019-03-26T17:11:42.543Z,45.10
2019-03-26T17:14:13.562Z,45.20
2019-03-26T17:16:44.878Z,43.45
2019-03-26T17:19:16.081Z,41.40
2019-03-26T17:21:48.308Z,42.13
2019-03-26T17:24:19.524Z,41.10
2019-03-26T17:26:50.567Z,42.25
2019-03-26T17:29:21.701Z,39.50
2019-03-26T17:31:53.096Z,45.60
2019-03-26T17:34:24.296Z,45.05
2019-03-26T17:36:55.497Z,45.15
2019-03-26T17:39:27.580Z,47.58
2019-03-26T17:42:00.333Z,51.35
2019-03-26T17:44:31.728Z,46.50
2019-03-26T17:47:02.810Z,48.92
2019-03-26T17:49:36.166Z,51.30
2019-03-26T17:52:07.590Z,53.45
2019-03-26T17:54:38.778Z,50.85
2019-03-26T17:57:10.177Z,53.68
2019-03-26T17:59:41.338Z,51.13
2019-03-26T18:02:12.550Z,54.35
2019-03-26T18:04:43.841Z,47.60
2019-03-26T18:07:15.101Z,52.10
2019-03-26T18:09:47.969Z,48.23
2019-03-26T18:12:30.326Z,52.25
2019-03-26T18:14:54.123Z,53.33
2019-03-26T18:17:25.309Z,46.83
2019-03-26T18:19:57.118Z,50.15
2019-03-26T18:22:28.535Z,53.52
2019-03-26T18:25:01.226Z,53.65
2019-03-26T18:27:32.302Z,48.25
2019-03-26T18:30:05.061Z,46.75
2019-03-26T18:32:36.137Z,48.33
2019-03-26T18:35:07.139Z,48.15
2019-03-26T18:37:39.428Z,52.55
2019-03-26T18:40:10.757Z,45.15
2019-03-26T18:42:44.368Z,52.40
2019-03-26T18:45:14.987Z,42.00
2019-03-26T18:47:45.995Z,40.88
2019-03-26T18:50:17.120Z,41.15
2019-03-26T18:52:49.254Z,42.67
2019-03-26T18:55:20.509Z,43.33
2019-03-26T18:57:51.568Z,40.80
2019-03-26T19:00:33.970Z,42.65
2019-03-26T19:03:05.751Z,39.98
2019-03-26T19:05:36.789Z,38.85
2019-03-26T19:08:08.895Z,38.30
2019-03-26T19:10:40.960Z,38.48
2019-03-26T19:13:19.092Z,42.45
2019-03-26T19:15:46.386Z,41.35
2019-03-26T19:18:17.503Z,43.75
2019-03-26T19:21:01.089Z,40.38
2019-03-26T19:23:21.655Z,42.70
2019-03-26T19:25:52.987Z,41.42
2019-03-26T19:28:24.264Z,40.95
2019-03-26T19:30:57.414Z,43.83
2019-03-26T19:33:31.766Z,43.38
2019-03-26T19:36:03.056Z,45.58
2019-03-26T19:38:36.081Z,37.53
2019-03-26T19:41:10.248Z,40.88
2019-03-26T19:43:41.397Z,39.40
2019-03-26T19:46:12.838Z,42.88
2019-03-26T19:48:44.237Z,45.45
2019-03-26T19:51:15.699Z,44.08
2019-03-26T19:53:46.882Z,37.53
2019-03-26T19:56:18.100Z,43.00
2019-03-26T19:58:49.226Z,43.17
2019-03-26T20:01:20.243Z,42.78
2019-03-26T20:03:51.402Z,39.80
2019-03-26T20:06:23.428Z,39.05
2019-03-26T20:08:54.589Z,39.58
2019-03-26T20:11:25.654Z,38.48
2019-03-26T20:13:56.920Z,44.53
2019-03-26T20:16:41.054Z,37.50
2019-03-26T20:19:01.053Z,38.42
2019-03-26T20:21:32.146Z,37.48
2019-03-26T20:24:03.512Z,43.87
2019-03-26T20:26:34.625Z,43.92
2019-03-26T20:29:05.813Z,45.67
2019-03-26T20:31:37.026Z,48.13
2019-03-26T20:34:08.113Z,37.78
2019-03-26T20:36:40.216Z,38.90
2019-03-26T20:39:11.476Z,40.45
2019-03-26T20:41:43.115Z,40.85
2019-03-26T20:44:14.299Z,38.63
2019-03-26T20:46:45.436Z,42.83
2019-03-26T20:49:16.823Z,40.12
2019-03-26T20:51:47.916Z,45.55
2019-03-26T20:54:19.633Z,44.00
2019-03-26T20:56:53.080Z,43.17
2019-03-26T20:59:24.177Z,39.38
2019-03-26T21:01:57.508Z,40.65
2019-03-26T21:04:28.777Z,44.35
2019-03-26T21:06:59.942Z,40.92
2019-03-26T21:09:31.047Z,42.27
2019-03-26T21:12:02.326Z,39.90
2019-03-26T21:14:33.424Z,38.15
2019-03-26T21:17:04.756Z,38.08
2019-03-26T21:19:36.084Z,37.70
2019-03-26T21:22:07.131Z,35.78
2019-03-26T21:24:38.247Z,35.92
2019-03-26T21:27:09.362Z,40.25
2019-03-26T21:29:40.551Z,37.63
2019-03-26T21:32:11.821Z,35.45
2019-03-26T21:34:45.228Z,43.68
2019-03-26T21:37:16.469Z,41.30
2019-03-26T21:39:47.659Z,41.15
2019-03-26T21:42:20.853Z,51.30
2019-03-26T21:44:53.625Z,36.75
2019-03-26T21:47:24.857Z,36.63
2019-03-26T21:49:56.019Z,35.25
2019-03-26T21:52:27.108Z,30.62
2019-03-26T21:54:58.114Z,32.58
2019-03-26T21:57:29.457Z,34.27
2019-03-26T22:00:00.578Z,36.30
2019-03-26T22:02:33.872Z,35.48
2019-03-26T22:05:07.396Z,34.73
2019-03-26T22:07:38.514Z,36.85
2019-03-26T22:10:09.578Z,34.92
2019-03-26T22:12:40.639Z,32.78
2019-03-26T22:15:12.325Z,35.98
2019-03-26T22:17:43.557Z,39.23
2019-03-26T22:20:14.638Z,44.63
2019-03-26T22:22:47.898Z,42.17
2019-03-26T22:25:19.345Z,44.40
2019-03-26T22:27:50.415Z,32.78
2019-03-26T22:30:21.560Z,33.10
2019-03-26T22:32:52.675Z,36.03
2019-03-26T22:35:23.787Z,29.57
2019-03-26T22:37:54.927Z,34.30
2019-03-26T22:40:26.164Z,35.20
2019-03-26T22:42:57.231Z,31.40
2019-03-26T22:45:28.335Z,32.98
2019-03-26T22:47:59.658Z,30.40
2019-03-26T22:50:30.743Z,30.68
2019-03-26T22:53:01.742Z,34.25
2019-03-26T22:55:33.022Z,36.90
2019-03-26T22:58:04.207Z,32.17
2019-03-26T23:00:36.038Z,31.93
2019-03-26T23:03:08.815Z,30.10
2019-03-26T23:05:39.979Z,32.75
2019-03-26T23:08:11.197Z,31.87
2019-03-26T23:10:43.688Z,30.80
2019-03-26T23:13:15.022Z,33.45
2019-03-26T23:15:46.186Z,30.57
2019-03-26T23:18:17.524Z,35.85
2019-03-26T23:20:50.985Z,34.98
2019-03-26T23:23:23.127Z,33.13
2019-03-26T23:25:54.492Z,42.53
2019-03-26T23:28:25.646Z,35.50
2019-03-26T23:30:56.702Z,40.65
2019-03-26T23:33:27.920Z,38.42
2019-03-26T23:35:59.102Z,36.00
2019-03-26T23:38:31.032Z,37.03
2019-03-26T23:41:02.205Z,37.13
2019-03-26T23:43:34.546Z,33.83
2019-03-26T23:46:06.717Z,37.88
2019-03-26T23:48:38.791Z,36.90
2019-03-26T23:51:09.839Z,39.58
2019-03-26T23:53:41.238Z,34.70
2019-03-26T23:56:12.372Z,35.40
2019-03-26T23:58:43.659Z,37.85
